Terminal Aerodrome Forecast
Issued by NWS Quad Cities IA IL

Home | Current Version | Previous Version | Text Only | Print | Product List | Glossary On
Versions: 1 2 3 4 5 6 7 8 9 10 11 12 13 14 15 16 17 18 19 20 21 22 23 24 25 26 27 28
681
FTUS43 KDVN 191127
TAFDBQ
TAF
KDBQ 191127Z 1912/2012 VRB03KT 6SM BR SKC
      TEMPO 1912/1914 2SM BR SCT001
     FM191600 14007KT P6SM SCT200=

USA.gov is the U.S. government's official web portal to all federal, state and local government web resources and services.